createdAt,value
2019-05-13T00:02:29.881Z,2.30
2019-05-13T00:07:25.815Z,1.83
2019-05-13T00:12:23.886Z,1.87
2019-05-13T00:17:19.638Z,1.70
2019-05-13T00:22:15.709Z,2.17
2019-05-13T00:27:11.624Z,2.63
2019-05-13T00:32:07.650Z,1.30
2019-05-13T00:37:10.772Z,2.37
2019-05-13T00:42:03.759Z,2.00
2019-05-13T00:46:59.337Z,2.30
2019-05-13T00:51:55.258Z,2.63
2019-05-13T00:56:51.215Z,2.10
2019-05-13T01:01:47.147Z,1.90
2019-05-13T01:06:43.617Z,3.33
2019-05-13T01:11:39.981Z,2.20
2019-05-13T01:16:35.975Z,2.33
2019-05-13T01:21:34.334Z,2.17
2019-05-13T01:26:29.721Z,2.17
2019-05-13T01:31:25.639Z,2.07
2019-05-13T01:36:23.470Z,2.57
2019-05-13T01:41:19.412Z,1.70
2019-05-13T01:46:15.339Z,2.17
2019-05-13T01:51:13.176Z,2.70
2019-05-13T01:56:10.108Z,2.80
2019-05-13T02:01:06.054Z,2.80
2019-05-13T02:06:03.735Z,1.70
2019-05-13T02:11:00.659Z,2.03
2019-05-13T02:15:56.683Z,2.40
2019-05-13T02:20:55.460Z,1.60
2019-05-13T02:25:54.123Z,2.40
2019-05-13T02:30:49.876Z,2.47
2019-05-13T02:35:45.791Z,2.67
2019-05-13T02:40:43.281Z,3.60
2019-05-13T02:45:42.874Z,1.93
2019-05-13T02:50:38.099Z,2.03
2019-05-13T02:55:34.061Z,2.00
2019-05-13T03:00:32.853Z,1.70
2019-05-13T03:05:27.841Z,2.43
2019-05-13T03:10:24.188Z,2.43
2019-05-13T03:15:23.030Z,2.90
2019-05-13T03:20:18.104Z,2.30
2019-05-13T03:25:14.021Z,2.47
2019-05-13T03:30:15.749Z,3.50
2019-05-13T03:35:08.862Z,2.30
2019-05-13T03:40:06.044Z,3.07
2019-05-13T03:45:03.200Z,2.87
2019-05-13T03:50:03.003Z,1.87
2019-05-13T03:54:57.683Z,2.30
2019-05-13T03:59:53.600Z,3.10
2019-05-13T04:04:52.851Z,2.67
2019-05-13T04:09:52.472Z,2.80
2019-05-13T04:14:47.933Z,2.53
2019-05-13T04:19:43.865Z,2.70
2019-05-13T04:24:42.652Z,2.73
2019-05-13T04:29:37.580Z,3.10
2019-05-13T04:34:34.149Z,2.70
2019-05-13T04:39:51.583Z,2.60
2019-05-13T04:44:44.409Z,3.10
2019-05-13T04:49:42.872Z,4.00
2019-05-13T04:54:38.403Z,3.37
2019-05-13T04:59:39.867Z,3.30
2019-05-13T05:04:45.054Z,3.80
2019-05-13T05:10:17.455Z,3.30
2019-05-13T05:15:37.289Z,4.40
2019-05-13T05:21:01.575Z,4.10
2019-05-13T05:26:07.390Z,4.20
2019-05-13T05:31:07.120Z,3.40
2019-05-13T05:36:22.007Z,2.93
2019-05-13T05:41:18.329Z,4.53
2019-05-13T05:46:15.580Z,3.23
2019-05-13T05:51:13.216Z,3.00
2019-05-13T05:56:13.142Z,3.20
2019-05-13T06:01:11.748Z,3.97
2019-05-13T06:06:07.194Z,3.17
2019-05-13T06:11:03.117Z,3.10
2019-05-13T06:16:01.705Z,3.30
2019-05-13T06:20:57.062Z,2.63
2019-05-13T06:25:53.869Z,2.27
2019-05-13T06:30:52.002Z,3.67
2019-05-13T06:35:47.820Z,3.47
2019-05-13T06:40:58.107Z,2.13
2019-05-13T06:45:42.171Z,2.70
2019-05-13T06:50:38.302Z,3.40
2019-05-13T06:55:34.232Z,3.17
2019-05-13T07:00:34.707Z,2.60
2019-05-13T07:05:28.197Z,2.20
2019-05-13T07:10:24.150Z,2.47
2019-05-13T07:15:22.381Z,2.57
2019-05-13T07:20:22.328Z,2.00
2019-05-13T07:25:16.927Z,2.50
2019-05-13T07:30:13.146Z,2.10
2019-05-13T07:35:13.312Z,2.30
2019-05-13T07:40:11.349Z,2.80
2019-05-13T07:45:06.640Z,2.07
2019-05-13T07:50:05.069Z,1.83
2019-05-13T07:55:01.764Z,1.87
2019-05-13T07:59:57.932Z,2.27
2019-05-13T08:04:53.869Z,2.20
2019-05-13T08:09:56.077Z,2.73
2019-05-13T08:14:52.155Z,1.90
2019-05-13T08:19:48.392Z,2.03
2019-05-13T08:24:44.418Z,2.20
2019-05-13T08:29:42.170Z,2.80
2019-05-13T08:34:38.394Z,1.87
2019-05-13T08:39:41.616Z,1.20
2019-05-13T08:44:38.118Z,1.80
2019-05-13T08:49:35.017Z,1.47
2019-05-13T08:54:33.005Z,1.80
2019-05-13T08:59:31.551Z,1.40
2019-05-13T09:04:27.682Z,1.20
2019-05-13T09:09:34.045Z,1.23
2019-05-13T09:14:32.454Z,1.37
2019-05-13T09:19:28.018Z,1.10
2019-05-13T09:24:32.820Z,1.13
2019-05-13T09:29:22.851Z,1.30
2019-05-13T09:34:18.884Z,1.50
2019-05-13T09:39:17.287Z,1.10
2019-05-13T09:44:13.553Z,1.20
2019-05-13T09:49:15.767Z,0.80
2019-05-13T09:54:07.306Z,0.90
2019-05-13T09:59:03.232Z,1.63
2019-05-13T10:03:59.165Z,1.00
2019-05-13T10:08:55.187Z,1.00
2019-05-13T10:13:51.595Z,1.23
2019-05-13T10:18:47.564Z,1.10
2019-05-13T10:23:43.590Z,0.93
2019-05-13T10:28:39.622Z,0.80
2019-05-13T10:33:37.548Z,1.00
2019-05-13T10:38:33.575Z,1.10
2019-05-13T10:43:31.612Z,0.97
2019-05-13T10:48:27.391Z,0.63
2019-05-13T10:53:23.357Z,0.63
2019-05-13T10:58:23.000Z,0.73
2019-05-13T11:03:17.435Z,1.07
2019-05-13T11:08:13.455Z,1.00
2019-05-13T11:13:10.765Z,1.10
2019-05-13T11:18:14.282Z,1.17
2019-05-13T11:23:05.504Z,1.07
2019-05-13T11:28:01.798Z,1.43
2019-05-13T11:32:58.264Z,1.37
2019-05-13T11:37:54.265Z,1.43
2019-05-13T11:42:52.668Z,1.60
2019-05-13T11:47:48.573Z,1.33
2019-05-13T11:52:44.473Z,1.57
2019-05-13T11:57:43.424Z,1.20
2019-05-13T12:02:38.649Z,1.70
2019-05-13T12:07:34.575Z,1.20
2019-05-13T12:12:34.281Z,1.23
2019-05-13T12:17:28.321Z,1.97
2019-05-13T12:22:24.250Z,0.90
2019-05-13T12:27:20.180Z,1.23
2019-05-13T12:32:16.192Z,1.43
2019-05-13T12:37:12.373Z,1.63
2019-05-13T12:42:08.483Z,1.07
2019-05-13T12:47:04.708Z,1.30
2019-05-13T12:52:04.450Z,1.43
2019-05-13T12:56:58.457Z,1.20
2019-05-13T13:01:54.392Z,1.40
2019-05-13T13:06:52.955Z,1.83
2019-05-13T13:11:48.659Z,1.37
2019-05-13T13:16:45.091Z,1.87
2019-05-13T13:21:41.092Z,0.90
2019-05-13T13:26:37.699Z,1.10
2019-05-13T13:31:33.921Z,1.13
2019-05-13T13:36:33.569Z,1.03
2019-05-13T13:41:27.873Z,1.17
2019-05-13T13:46:42.447Z,1.03
2019-05-13T13:51:26.562Z,1.00
2019-05-13T13:56:25.185Z,1.20
2019-05-13T14:01:26.983Z,1.47
2019-05-13T14:07:20.290Z,1.33
2019-05-13T14:11:16.924Z,1.50
2019-05-13T14:16:24.916Z,1.17
2019-05-13T14:21:10.701Z,1.70
2019-05-13T14:26:07.225Z,1.33
2019-05-13T14:31:04.363Z,1.80
2019-05-13T14:36:01.544Z,1.77
2019-05-13T14:40:57.722Z,1.73
2019-05-13T14:45:53.641Z,1.60
2019-05-13T14:50:49.563Z,1.60
2019-05-13T14:55:45.486Z,1.73
2019-05-13T15:00:42.287Z,1.93
2019-05-13T15:05:38.434Z,1.90
2019-05-13T15:10:34.364Z,2.00
2019-05-13T15:15:31.701Z,2.33
2019-05-13T15:20:27.864Z,1.87
2019-05-13T15:25:24.614Z,1.20
2019-05-13T15:30:21.778Z,1.57
2019-05-13T15:35:17.979Z,1.53
2019-05-13T15:40:14.465Z,1.17
2019-05-13T15:45:12.501Z,1.53
2019-05-13T15:50:08.831Z,1.83
2019-05-13T15:55:05.950Z,1.70
2019-05-13T16:00:03.474Z,2.07
2019-05-13T16:05:02.188Z,1.53
2019-05-13T16:10:02.002Z,1.30
2019-05-13T16:14:58.552Z,1.20
2019-05-13T16:19:55.585Z,1.20
2019-05-13T16:24:52.539Z,1.40
2019-05-13T16:29:51.534Z,1.30
2019-05-13T16:34:47.524Z,1.20
2019-05-13T16:39:58.514Z,1.40
2019-05-13T16:44:56.470Z,1.47
2019-05-13T16:49:53.542Z,1.70
2019-05-13T16:54:53.366Z,1.27
2019-05-13T16:59:48.983Z,1.70
2019-05-13T17:04:45.745Z,1.17
2019-05-13T17:09:48.284Z,0.90
2019-05-13T17:14:44.237Z,1.43
2019-05-13T17:19:42.319Z,1.30
2019-05-13T17:24:42.449Z,1.73
2019-05-13T17:29:37.554Z,1.50
2019-05-13T17:34:34.657Z,1.77
2019-05-13T17:39:32.382Z,1.30
2019-05-13T17:44:28.480Z,1.30
2019-05-13T17:49:24.503Z,1.20
2019-05-13T17:54:22.210Z,1.27
2019-05-13T17:59:18.303Z,1.03
2019-05-13T18:04:14.285Z,0.90
2019-05-13T18:09:12.234Z,0.93
2019-05-13T18:14:08.442Z,1.07
2019-05-13T18:19:04.367Z,1.40
2019-05-13T18:24:01.408Z,1.47
2019-05-13T18:28:57.516Z,1.40
2019-05-13T18:33:53.441Z,0.90
2019-05-13T18:38:49.361Z,2.07
2019-05-13T18:43:45.322Z,1.70
2019-05-13T18:48:57.714Z,1.87
2019-05-13T18:53:41.299Z,1.83
2019-05-13T18:58:36.895Z,1.57
2019-05-13T19:03:32.821Z,1.07
2019-05-13T19:08:28.738Z,1.10
2019-05-13T19:13:24.657Z,1.33
2019-05-13T19:18:21.470Z,0.90
2019-05-13T19:23:17.613Z,0.90
2019-05-13T19:28:13.561Z,0.90
2019-05-13T19:33:11.957Z,1.10
2019-05-13T19:38:07.303Z,0.90
2019-05-13T19:43:03.255Z,0.80
2019-05-13T19:48:01.131Z,0.90
2019-05-13T19:52:57.016Z,0.93
2019-05-13T19:57:52.951Z,1.10
2019-05-13T20:02:48.878Z,1.10
2019-05-13T20:07:44.807Z,1.00
2019-05-13T20:12:42.035Z,1.60
2019-05-13T20:17:38.162Z,1.07
2019-05-13T20:22:34.102Z,1.20
2019-05-13T20:27:31.686Z,1.00
2019-05-13T20:32:27.746Z,0.90
2019-05-13T20:37:23.767Z,1.20
2019-05-13T20:42:19.733Z,1.07
2019-05-13T20:47:15.656Z,1.37
2019-05-13T20:52:15.197Z,1.10
2019-05-13T20:57:09.420Z,1.43
2019-05-13T21:02:05.341Z,1.17
2019-05-13T21:07:02.137Z,0.97
2019-05-13T21:11:58.319Z,1.10
2019-05-13T21:16:54.243Z,1.30
2019-05-13T21:21:51.071Z,1.13
2019-05-13T21:26:47.203Z,0.80
2019-05-13T21:31:43.237Z,1.13
2019-05-13T21:36:41.190Z,0.90
2019-05-13T21:41:37.003Z,1.17
2019-05-13T21:46:33.160Z,1.17
2019-05-13T21:51:31.381Z,1.10
2019-05-13T21:56:26.919Z,1.13
2019-05-13T22:01:23.432Z,1.20
2019-05-13T22:06:21.623Z,1.20
2019-05-13T22:11:17.330Z,1.07
2019-05-13T22:16:13.348Z,1.63
2019-05-13T22:21:11.671Z,1.20
2019-05-13T22:26:07.259Z,1.10
2019-05-13T22:31:03.286Z,2.03
2019-05-13T22:36:01.645Z,1.50
2019-05-13T22:40:57.175Z,1.23
2019-05-13T22:45:53.107Z,1.97
2019-05-13T22:50:49.030Z,1.23
2019-05-13T22:55:44.962Z,1.70
2019-05-13T23:00:42.338Z,2.00
2019-05-13T23:05:38.467Z,1.70
2019-05-13T23:10:34.416Z,1.50
2019-05-13T23:15:30.311Z,1.90
2019-05-13T23:20:26.236Z,1.70
2019-05-13T23:25:22.158Z,2.17
2019-05-13T23:30:18.193Z,2.10
2019-05-13T23:35:14.225Z,1.70
2019-05-13T23:40:11.906Z,2.20
2019-05-13T23:45:08.365Z,2.20
2019-05-13T23:50:04.884Z,1.97
2019-05-13T23:55:02.503Z,1.60
2019-05-13T23:59:58.630Z,2.10
